Pagina principale
METAR-TAF:

METAR-TAF

Aeroporti :

Lahr, Germania

latitudine: 48-22-09N, longitudine: 007-49-40E, altezza: 156 m

Osservazione

Il bollettino è stato emesso 40 minuti fa, alle 16:50 UTC
Vento 1 kt da direzioni variabili
Temperature 21°C
Umidità 40%
Pressione 1015 hPa
Visibilità 10 km o più
nessuna nube inferiore a 1500 m e nessun cumulonembo

METAR: EDTL 131650Z VRB01KT CAVOK 21/07 Q1015

Ora: 19:30 (17:30 UTC)

Previsione

Il bollettino è stato emesso 3 ore e 30 minuti fa, alle 14:00 UTC
Previsione valida dal 13 alle 15 UTC al 13 alle 24 UTC
Vento 5 kt da ovest/nord-ovest
Visibilità 10 km o più
nessuna nube inferiore a 1500 m e nessun cumulonembo
Evoluzione graduale
dal 13 alle 18 UTC al 13 alle 20 UTC
Vento 3 kt da direzioni variabili

TAF: EDTL 131400Z 1315/1324 30005KT CAVOK BECMG 1318/1320 VRB03KT

Osservazioni e previsioni meteorologiche di più di 4000 aeroporti (messaggi METAR e TAF).

Le stazioni disponibili sono rappresentate dai dischi gialli e rossi sulla carta.

Puntare il mouse per vedere il nome della stazione.

Clicca sopra per visualizzare le osservazioni e previsioni meteorologiche.

Per cambiare la mappa : fare clic sui pulsanti verdi con una croce nera per ingrandire, il pulsante verde con un trattino per diminuire, o sulla freccia verde per le mappe adiacenti.


METAR-TAF: